Time;durP1;ratioP1;P1;durP2;ratioP2;P2;SDS_P1;SDS_P2;PMS_P1;PMS_P2;Temp;Humidity;BMP_temperature;BMP_pressure;BME280_temperature;BME280_humidity;BME280_pressure;Samples;Min_cycle;Max_cycle;Signal;HPM_P1;HPM_P2
2021/01/25 00:00:10;;;;;;;18.40;12.35;;;0.40;95.70;;;;;;5037420;28;20032;-66
2021/01/25 00:02:36;;;;;;;16.52;11.90;;;0.40;95.70;;;;;;5047982;28;20064;-67
2021/01/25 00:05:06;;;;;;;18.15;11.98;;;0.40;95.70;;;;;;5033522;28;20618;-66
2021/01/25 00:07:33;;;;;;;22.77;11.63;;;0.40;95.70;;;;;;5041345;28;20060;-66
2021/01/25 00:09:59;;;;;;;18.50;11.35;;;0.40;95.70;;;;;;5030864;28;20091;-66
2021/01/25 00:12:25;;;;;;;20.60;11.40;;;0.40;95.70;;;;;;5029824;28;20083;-67
2021/01/25 00:14:50;;;;;;;18.42;11.30;;;0.30;95.70;;;;;;5049649;28;20305;-66
2021/01/25 00:17:16;;;;;;;18.25;11.48;;;0.40;95.80;;;;;;5048661;28;20528;-66
2021/01/25 00:19:42;;;;;;;16.55;10.75;;;0.30;95.80;;;;;;5049036;28;20418;-66
2021/01/25 00:22:07;;;;;;;17.85;10.50;;;0.30;95.80;;;;;;5033994;28;20060;-67
2021/01/25 00:24:33;;;;;;;17.75;10.82;;;0.20;95.80;;;;;;5042862;28;20137;-66
2021/01/25 00:26:58;;;;;;;19.08;11.05;;;0.20;95.90;;;;;;5046670;28;20033;-66
2021/01/25 00:29:24;;;;;;;17.48;12.02;;;0.10;95.90;;;;;;5019221;28;20025;-67
2021/01/25 00:31:49;;;;;;;19.23;11.57;;;0.10;96.00;;;;;;5029176;28;20401;-67
2021/01/25 00:34:15;;;;;;;19.27;11.93;;;0.10;96.00;;;;;;5043567;28;20021;-65
2021/01/25 00:36:41;;;;;;;23.52;12.18;;;0.10;96.00;;;;;;5034681;28;20061;-66
2021/01/25 00:39:06;;;;;;;19.23;12.27;;;0.10;96.10;;;;;;5029768;28;20021;-66
2021/01/25 00:41:32;;;;;;;21.80;12.13;;;0.10;96.10;;;;;;5029320;28;20033;-66
2021/01/25 00:43:58;;;;;;;18.58;12.05;;;0.10;96.10;;;;;;5035494;28;20025;-66
2021/01/25 00:46:24;;;;;;;20.90;12.75;;;0.00;96.10;;;;;;5029905;28;20037;-66
2021/01/25 00:48:50;;;;;;;20.98;12.43;;;0.00;96.20;;;;;;5044337;28;20033;-66
2021/01/25 00:51:15;;;;;;;22.27;12.90;;;0.00;96.20;;;;;;5044405;28;20040;-66
2021/01/25 00:53:41;;;;;;;22.90;12.90;;;0.00;96.20;;;;;;5040807;28;20017;-67
2021/01/25 00:56:07;;;;;;;21.92;12.90;;;-3276.70;96.20;;;;;;5047186;28;20429;-66
2021/01/25 00:58:32;;;;;;;20.00;12.88;;;0.00;96.30;;;;;;5059903;23;20064;-65
2021/01/25 01:00:58;;;;;;;25.65;13.88;;;-3276.70;96.30;;;;;;5020073;28;20029;-65
2021/01/25 01:03:23;;;;;;;22.20;12.57;;;-3276.70;96.30;;;;;;5045078;28;20513;-65
2021/01/25 01:05:50;;;;;;;22.83;12.68;;;-3276.70;96.30;;;;;;5046729;28;20151;-65
2021/01/25 01:08:16;;;;;;;22.77;13.48;;;-3276.70;96.30;;;;;;5024186;28;20124;-65
2021/01/25 01:10:41;;;;;;;22.60;12.63;;;-3276.70;96.30;;;;;;5043853;28;20039;-65
2021/01/25 01:13:07;;;;;;;22.52;12.05;;;-3276.70;96.30;;;;;;5044482;28;20028;-64
2021/01/25 01:15:32;;;;;;;21.60;12.85;;;-3276.70;96.30;;;;;;5045097;28;20032;-65
2021/01/25 01:17:58;;;;;;;24.00;13.18;;;-3276.60;96.30;;;;;;5044958;28;20041;-65
2021/01/25 01:20:24;;;;;;;24.10;11.80;;;-3276.60;96.30;;;;;;5046084;28;20087;-65
2021/01/25 01:22:49;;;;;;;17.92;12.20;;;-3276.50;96.30;;;;;;5044794;28;20029;-65
2021/01/25 01:25:15;;;;;;;19.67;13.02;;;-3276.40;96.30;;;;;;5031792;28;20029;-64
2021/01/25 01:27:41;;;;;;;22.65;12.82;;;-3276.40;96.40;;;;;;5040782;28;20056;-65
2021/01/25 01:30:08;;;;;;;24.85;12.75;;;-3276.30;96.40;;;;;;5040368;28;20071;-65
2021/01/25 01:32:34;;;;;;;20.10;12.57;;;-3276.30;96.50;;;;;;5045921;28;20029;-65
2021/01/25 01:35:00;;;;;;;20.27;13.00;;;-3276.30;96.50;;;;;;5043732;28;20025;-64
2021/01/25 01:37:25;;;;;;;24.70;13.70;;;-3276.20;96.60;;;;;;5043560;28;20025;-64
2021/01/25 01:39:51;;;;;;;25.10;12.98;;;-3276.20;96.60;;;;;;5044070;28;20495;-65
2021/01/25 01:42:17;;;;;;;25.73;13.35;;;-3276.10;96.60;;;;;;5045692;28;20076;-65
2021/01/25 01:44:43;;;;;;;23.38;13.05;;;-3276.10;96.70;;;;;;5033012;28;20029;-65
2021/01/25 01:47:12;;;;;;;26.50;14.43;;;-3276.00;96.70;;;;;;5039612;28;20036;-64
2021/01/25 01:49:39;;;;;;;26.08;14.80;;;-3276.00;96.70;;;;;;5044529;28;20052;-65
2021/01/25 01:52:05;;;;;;;26.80;14.27;;;-3275.90;96.80;;;;;;5045430;28;20075;-65
2021/01/25 01:54:32;;;;;;;26.70;14.63;;;-3275.90;96.80;;;;;;5039033;28;20110;-65
2021/01/25 01:56:57;;;;;;;28.77;14.63;;;-3275.80;96.80;;;;;;5033286;28;20025;-65
2021/01/25 01:59:23;;;;;;;32.67;14.95;;;-3275.80;96.90;;;;;;5040600;28;20075;-65
2021/01/25 02:01:48;;;;;;;31.88;15.73;;;-3275.80;96.90;;;;;;5025883;28;20375;-65
2021/01/25 02:04:14;;;;;;;37.97;16.90;;;-3275.70;96.90;;;;;;5046018;28;20068;-65
2021/01/25 02:06:41;;;;;;;37.47;17.08;;;-3275.70;97.00;;;;;;5031708;28;20497;-64
2021/01/25 02:09:07;;;;;;;35.58;16.88;;;-3275.70;97.00;;;;;;5046958;28;20029;-65
2021/01/25 02:11:36;;;;;;;39.35;19.17;;;-3275.70;97.00;;;;;;5041716;28;20103;-64
2021/01/25 02:14:02;;;;;;;42.38;17.63;;;-3275.70;97.10;;;;;;5037751;28;20024;-65
2021/01/25 02:16:28;;;;;;;45.95;18.05;;;-3275.70;97.10;;;;;;5049506;28;20157;-66
2021/01/25 02:18:54;;;;;;;37.65;16.92;;;-3275.70;97.10;;;;;;5047405;28;20145;-66
2021/01/25 02:21:21;;;;;;;44.63;18.55;;;-3275.70;97.10;;;;;;5049275;28;20130;-66
2021/01/25 02:24:05;;;;;;;43.85;18.33;;;-3275.70;97.10;;;;;;5042374;28;20179;-66
2021/01/25 02:27:11;;;;;;;47.33;20.08;;;-3275.70;97.20;;;;;;5039857;28;20036;-66
2021/01/25 02:29:37;;;;;;;41.72;19.52;;;-3275.70;97.20;;;;;;4952624;28;20085;-64
2021/01/25 02:32:03;;;;;;;40.33;19.52;;;-3275.80;97.20;;;;;;5028761;28;20080;-65
2021/01/25 02:34:32;;;;;;;50.20;21.02;;;-3275.70;97.20;;;;;;5044559;28;20128;-66
2021/01/25 02:36:59;;;;;;;37.72;18.45;;;-3275.70;97.10;;;;;;5041808;28;20116;-65
2021/01/25 02:39:26;;;;;;;43.45;20.40;;;-3275.70;97.10;;;;;;5041523;28;20458;-66
2021/01/25 02:41:53;;;;;;;40.58;18.23;;;-3275.60;97.10;;;;;;5049173;28;20512;-65
2021/01/25 02:44:19;;;;;;;47.60;20.80;;;-3275.60;97.10;;;;;;5034812;28;20033;-65
2021/01/25 02:46:45;;;;;;;48.70;19.77;;;-3275.60;97.10;;;;;;5028790;28;20021;-65
2021/01/25 02:49:11;;;;;;;45.38;19.90;;;-3275.50;97.10;;;;;;5025550;28;20123;-66
2021/01/25 02:51:36;;;;;;;47.80;21.02;;;-3275.50;97.20;;;;;;5048618;28;20040;-65
2021/01/25 02:54:02;;;;;;;56.83;20.15;;;-3275.40;97.10;;;;;;5045506;28;20423;-65
2021/01/25 02:56:28;;;;;;;48.17;19.95;;;-3275.40;97.20;;;;;;5029156;28;20105;-65
2021/01/25 02:58:54;;;;;;;48.63;19.60;;;-3275.40;97.20;;;;;;5040189;28;20116;-65
2021/01/25 03:01:19;;;;;;;55.30;21.30;;;-3275.40;97.20;;;;;;5046691;28;20407;-65
2021/01/25 03:03:46;;;;;;;55.35;22.42;;;-3275.40;97.20;;;;;;5044831;28;20500;-65
2021/01/25 03:06:12;;;;;;;55.05;23.13;;;-3275.40;97.20;;;;;;5049023;28;20382;-65
2021/01/25 03:08:37;;;;;;;49.33;21.52;;;-3275.50;97.30;;;;;;5045497;28;20176;-65
2021/01/25 03:11:03;;;;;;;55.65;22.92;;;-3275.50;97.20;;;;;;5048119;28;20607;-65
2021/01/25 03:13:29;;;;;;;48.28;21.98;;;-3275.40;97.20;;;;;;5040073;28;20112;-65
2021/01/25 03:15:59;;;;;;;55.28;21.60;;;-3275.30;97.20;;;;;;5031443;28;20025;-65
2021/01/25 03:18:25;;;;;;;60.85;23.35;;;-3275.30;97.20;;;;;;5038777;28;20036;-65
2021/01/25 03:20:53;;;;;;;57.95;23.58;;;-3275.40;97.30;;;;;;5030956;28;20098;-65
2021/01/25 03:23:19;;;;;;;60.10;24.23;;;-3275.40;97.20;;;;;;5044918;28;20024;-65
2021/01/25 03:25:45;;;;;;;57.22;25.15;;;-3275.40;97.20;;;;;;5039880;28;20586;-64
2021/01/25 03:28:11;;;;;;;56.40;24.15;;;-3275.30;97.20;;;;;;5043560;28;20369;-63
2021/01/25 03:30:37;;;;;;;64.90;24.23;;;-3275.30;97.20;;;;;;5046001;28;20037;-64
2021/01/25 03:33:04;;;;;;;59.53;23.88;;;-3275.40;97.20;;;;;;5044747;28;20028;-65
2021/01/25 03:35:29;;;;;;;50.00;24.08;;;-3275.40;97.20;;;;;;5032146;28;20022;-65
2021/01/25 03:37:55;;;;;;;57.08;23.10;;;-3275.30;97.20;;;;;;5034753;28;20031;-65
2021/01/25 03:40:21;;;;;;;65.10;25.38;;;-3275.20;97.10;;;;;;5046315;28;20175;-65
2021/01/25 03:42:46;;;;;;;67.78;25.17;;;-3275.30;97.20;;;;;;5046730;28;20040;-65
2021/01/25 03:45:12;;;;;;;56.97;25.15;;;-3275.30;97.20;;;;;;5046417;28;20101;-64
2021/01/25 03:47:38;;;;;;;67.53;27.20;;;-3275.30;97.20;;;;;;5036804;28;20025;-65
2021/01/25 03:50:04;;;;;;;81.90;27.77;;;-3275.40;97.20;;;;;;5044684;28;20112;-65
2021/01/25 03:52:30;;;;;;;71.40;27.40;;;-3275.40;97.20;;;;;;5046428;28;20037;-65
2021/01/25 03:54:56;;;;;;;61.83;26.98;;;-3275.40;97.20;;;;;;5037092;28;20463;-64
2021/01/25 03:57:21;;;;;;;64.43;25.98;;;-3275.40;97.20;;;;;;5039376;28;20279;-65
2021/01/25 03:59:47;;;;;;;62.30;25.35;;;-3275.40;97.20;;;;;;5040431;28;20033;-65
2021/01/25 04:02:13;;;;;;;66.82;26.65;;;-3275.30;97.10;;;;;;5035246;28;20568;-64
2021/01/25 04:04:42;;;;;;;62.15;26.13;;;-3275.20;97.10;;;;;;5046714;28;20144;-63
2021/01/25 04:07:10;;;;;;;61.22;24.48;;;-3275.20;97.10;;;;;;5038873;28;20107;-64
2021/01/25 04:09:37;;;;;;;60.80;24.33;;;-3275.10;97.10;;;;;;5043670;28;20486;-64
2021/01/25 04:12:03;;;;;;;60.97;25.58;;;-3275.00;97.10;;;;;;5046797;28;20033;-64
2021/01/25 04:14:29;;;;;;;53.83;22.42;;;-3275.00;97.10;;;;;;5034343;28;20017;-64
2021/01/25 04:16:54;;;;;;;58.47;24.13;;;-3274.90;97.10;;;;;;5042614;28;20051;-65
2021/01/25 04:19:20;;;;;;;65.95;23.92;;;-3274.80;97.10;;;;;;5045464;28;20482;-64
2021/01/25 04:21:46;;;;;;;62.47;24.10;;;-3274.80;97.10;;;;;;5045775;28;20104;-64
2021/01/25 04:24:11;;;;;;;65.38;24.75;;;-3274.80;97.10;;;;;;5042720;28;20123;-64
2021/01/25 04:26:41;;;;;;;66.00;25.00;;;-3274.70;97.10;;;;;;5038246;28;20102;-64
2021/01/25 04:29:13;;;;;;;75.57;25.05;;;-3274.70;97.10;;;;;;5030358;28;20027;-64
2021/01/25 04:31:39;;;;;;;64.25;23.42;;;-3274.70;97.20;;;;;;5042071;28;20072;-64
2021/01/25 04:34:05;;;;;;;66.53;24.25;;;-3274.60;97.10;;;;;;5038962;28;20069;-64
2021/01/25 04:36:31;;;;;;;67.95;25.23;;;-3274.70;97.20;;;;;;5037276;28;20048;-64
2021/01/25 04:38:57;;;;;;;71.75;27.08;;;-3274.60;97.20;;;;;;5044083;28;20021;-64
2021/01/25 04:41:24;;;;;;;80.65;27.52;;;-3274.70;97.20;;;;;;5045201;28;20462;-64
2021/01/25 04:43:50;;;;;;;80.35;28.48;;;-3274.70;97.30;;;;;;5043896;28;20108;-64
2021/01/25 04:46:15;;;;;;;87.15;29.83;;;-3274.80;97.40;;;;;;5038453;28;20021;-64
2021/01/25 04:48:44;;;;;;;90.20;31.67;;;-3274.80;97.30;;;;;;5043648;28;20106;-64
2021/01/25 04:51:12;;;;;;;96.65;33.50;;;-3274.90;97.40;;;;;;5045396;28;20025;-63
2021/01/25 04:53:39;;;;;;;94.70;35.35;;;-3275.00;97.50;;;;;;5036946;28;20026;-64
2021/01/25 04:56:06;;;;;;;103.53;36.33;;;-3275.10;97.40;;;;;;5046301;28;20021;-64
2021/01/25 04:58:31;;;;;;;94.65;34.67;;;-3275.10;97.50;;;;;;5040982;28;20037;-64
2021/01/25 05:00:58;;;;;;;103.20;35.97;;;-3275.20;97.40;;;;;;5038199;28;20032;-64
2021/01/25 05:03:23;;;;;;;105.35;36.67;;;-3275.30;97.50;;;;;;5029535;28;20193;-64
2021/01/25 05:05:49;;;;;;;102.93;38.17;;;-3275.30;97.50;;;;;;5041120;28;20152;-64
2021/01/25 05:08:15;;;;;;;106.28;35.78;;;-3275.40;97.40;;;;;;5045305;28;20040;-64
2021/01/25 05:10:41;;;;;;;90.78;36.15;;;-3275.40;97.40;;;;;;5044284;28;20126;-64
2021/01/25 05:13:06;;;;;;;101.25;37.47;;;-3275.40;97.40;;;;;;5036953;28;20164;-64
2021/01/25 05:15:34;;;;;;;98.15;35.58;;;-3275.50;97.40;;;;;;5027342;28;20138;-64
2021/01/25 05:18:23;;;;;;;89.20;35.47;;;-3275.50;97.30;;;;;;5045818;28;20023;-64
2021/01/25 05:20:53;;;;;;;91.30;33.53;;;-3275.50;97.30;;;;;;5039818;28;20068;-64
2021/01/25 05:23:19;;;;;;;80.45;33.92;;;-3275.60;97.30;;;;;;5041392;28;20021;-65
2021/01/25 05:25:45;;;;;;;74.90;32.70;;;-3275.50;97.20;;;;;;5033431;28;20516;-64
2021/01/25 05:28:20;;;;;;;75.88;32.38;;;-3275.60;97.20;;;;;;5045587;28;20025;-63
2021/01/25 05:30:46;;;;;;;62.40;30.00;;;-3275.60;97.10;;;;;;5044403;28;20370;-65
2021/01/25 05:33:12;;;;;;;73.03;30.77;;;-3275.60;97.10;;;;;;5014410;28;20044;-65
2021/01/25 05:35:41;;;;;;;70.85;31.15;;;-3275.60;97.10;;;;;;5047317;28;20029;-65
2021/01/25 05:38:08;;;;;;;65.55;28.88;;;-3275.60;97.10;;;;;;5050341;28;20021;-65
2021/01/25 05:40:37;;;;;;;72.05;30.10;;;-3275.60;97.00;;;;;;5048680;28;20200;-65
2021/01/25 05:43:13;;;;;;;72.68;30.40;;;-3275.60;96.90;;;;;;5046731;28;20091;-65
2021/01/25 05:45:39;;;;;;;64.03;29.00;;;-3275.60;96.90;;;;;;5034848;28;20051;-65
2021/01/25 05:48:05;;;;;;;76.70;30.58;;;-3275.60;96.90;;;;;;5049097;28;20052;-65
2021/01/25 05:50:39;;;;;;;64.65;28.23;;;-3275.60;96.90;;;;;;5047994;28;20033;-65
2021/01/25 05:53:06;;;;;;;65.88;28.17;;;-3275.60;96.90;;;;;;5030269;28;20181;-65
2021/01/25 05:55:33;;;;;;;67.93;28.52;;;-3275.60;96.80;;;;;;5046539;28;20049;-65
2021/01/25 05:57:59;;;;;;;70.43;31.15;;;-3275.60;96.80;;;;;;5042250;28;20228;-65
2021/01/25 06:00:26;;;;;;;74.82;29.33;;;-3275.50;96.80;;;;;;5040870;28;20326;-65
2021/01/25 06:02:53;;;;;;;68.95;29.38;;;-3275.50;96.80;;;;;;5039936;28;20385;-65
2021/01/25 06:05:31;;;;;;;75.25;30.88;;;-3275.50;96.80;;;;;;5048886;28;20037;-65
2021/01/25 06:08:13;;;;;;;82.28;28.83;;;-3275.50;96.80;;;;;;5028864;28;20033;-65
2021/01/25 06:11:04;;;;;;;98.25;29.63;;;-3275.50;96.80;;;;;;5027119;28;20051;-64
2021/01/25 06:13:47;;;;;;;113.28;29.52;;;-3275.40;96.80;;;;;;5020110;28;20312;-64
2021/01/25 06:16:13;;;;;;;182.75;30.52;;;-3275.40;96.90;;;;;;5026458;28;20151;-64
2021/01/25 06:18:42;;;;;;;155.52;29.08;;;-3275.30;96.90;;;;;;5025279;28;20029;-65
2021/01/25 06:21:10;;;;;;;109.75;30.85;;;-3275.40;97.00;;;;;;5026516;28;20553;-64
2021/01/25 06:23:37;;;;;;;91.60;31.10;;;-3275.40;97.00;;;;;;5043330;28;20055;-64
2021/01/25 06:26:04;;;;;;;120.13;30.02;;;-3275.40;97.10;;;;;;5036579;28;20100;-65
2021/01/25 06:28:31;;;;;;;84.57;29.17;;;-3275.40;97.10;;;;;;5049378;28;20029;-66
2021/01/25 06:30:57;;;;;;;88.88;30.33;;;-3275.40;97.10;;;;;;5047666;28;20033;-66
2021/01/25 06:33:23;;;;;;;103.63;32.42;;;-3275.40;97.20;;;;;;5047871;28;20390;-66
2021/01/25 06:35:50;;;;;;;156.65;31.00;;;-3275.40;97.20;;;;;;5042524;28;20096;-66
2021/01/25 06:38:18;;;;;;;124.53;32.60;;;-3275.40;97.20;;;;;;5049222;28;20414;-66
2021/01/25 06:40:45;;;;;;;136.07;33.28;;;-3275.50;97.20;;;;;;5047540;28;20036;-66
2021/01/25 06:43:13;;;;;;;197.52;33.05;;;-3275.40;97.20;;;;;;5050287;28;20025;-66
2021/01/25 06:45:39;;;;;;;224.55;32.30;;;-3275.40;97.10;;;;;;5041023;28;20025;-66
2021/01/25 06:48:16;;;;;;;185.18;31.95;;;-3275.30;97.10;;;;;;5046632;28;20122;-66
2021/01/25 06:50:47;;;;;;;228.52;33.33;;;-3275.30;97.20;;;;;;5040909;28;20037;-67
2021/01/25 06:53:13;;;;;;;;;;;-3275.40;97.20;;;;;;5048764;28;20033;-66
2021/01/25 06:55:42;;;;;;;247.93;32.38;;;-3275.30;97.20;;;;;;5043977;28;19912;-66
2021/01/25 07:00:53;;;;;;;243.65;34.13;;;-3275.30;97.30;;;;;;5040023;28;20048;-67
2021/01/25 07:03:22;;;;;;;136.27;31.83;;;-3275.30;97.30;;;;;;5049008;28;20025;-67
2021/01/25 07:05:50;;;;;;;144.80;32.88;;;-3275.40;97.40;;;;;;5048949;28;20082;-66
2021/01/25 07:08:16;;;;;;;158.55;32.78;;;-3275.40;97.40;;;;;;5046556;28;20078;-67
2021/01/25 07:10:55;;;;;;;175.45;34.25;;;-3275.40;97.30;;;;;;5043465;28;20028;-66
2021/01/25 07:13:23;;;;;;;159.82;33.45;;;-3275.40;97.30;;;;;;5051389;28;20033;-66
2021/01/25 07:15:48;;;;;;;142.60;34.03;;;-3275.40;97.30;;;;;;5050080;28;20390;-65
2021/01/25 07:18:14;;;;;;;120.10;33.17;;;-3275.40;97.30;;;;;;5044513;28;20035;-66
2021/01/25 07:20:45;;;;;;;134.73;33.38;;;-3275.40;97.30;;;;;;5049949;28;20082;-67
2021/01/25 07:23:13;;;;;;;128.65;33.05;;;-3275.40;97.30;;;;;;5051226;28;20029;-66
2021/01/25 07:25:38;;;;;;;132.52;33.20;;;-3275.40;97.30;;;;;;5041509;28;20110;-68
2021/01/25 07:28:04;;;;;;;139.88;33.15;;;-3275.40;97.30;;;;;;5032954;28;20737;-65
2021/01/25 07:30:33;;;;;;;105.20;33.38;;;-3275.40;97.30;;;;;;5038023;28;20025;-67
2021/01/25 07:33:03;;;;;;;105.05;32.67;;;-3275.40;97.30;;;;;;5016058;28;20025;-68
2021/01/25 07:35:29;;;;;;;130.03;33.93;;;-3275.40;97.30;;;;;;5032085;28;20501;-67
2021/01/25 07:37:54;;;;;;;95.20;35.15;;;-3275.40;97.30;;;;;;5028250;28;20028;-68
2021/01/25 07:40:23;;;;;;;80.80;32.78;;;-3275.50;97.40;;;;;;5032261;28;20317;-67
2021/01/25 07:42:50;;;;;;;196.25;36.45;;;-3275.50;97.40;;;;;;5034987;28;20037;-68
2021/01/25 07:45:16;;;;;;;183.75;34.35;;;-3275.40;97.30;;;;;;5034239;28;20924;-66
2021/01/25 07:47:45;;;;;;;110.03;34.10;;;-3275.40;97.30;;;;;;5034226;28;20037;-66
2021/01/25 07:50:12;;;;;;;117.78;34.00;;;-3275.50;97.30;;;;;;5030152;28;20243;-68
2021/01/25 07:52:38;;;;;;;119.00;33.25;;;-3275.50;97.30;;;;;;5029912;28;20127;-67
2021/01/25 07:55:14;;;;;;;116.25;32.08;;;-3275.50;97.20;;;;;;5030468;28;20116;-67
2021/01/25 07:57:44;;;;;;;102.88;33.00;;;-3275.50;97.30;;;;;;5038257;28;20030;-67
2021/01/25 08:00:23;;;;;;;129.02;33.30;;;-3275.60;97.30;;;;;;5036397;28;20021;-66
2021/01/25 08:03:00;;;;;;;90.25;30.67;;;-3275.50;97.20;;;;;;5048761;28;20049;-66
2021/01/25 08:05:27;;;;;;;138.88;31.63;;;-3275.60;97.20;;;;;;5038123;28;20021;-66
2021/01/25 08:07:53;;;;;;;88.72;30.65;;;-3275.50;97.20;;;;;;5014939;28;20056;-68
2021/01/25 08:10:20;;;;;;;100.47;31.17;;;-3275.60;97.10;;;;;;5041604;28;20048;-67
2021/01/25 08:12:47;;;;;;;87.60;32.25;;;-3275.50;97.10;;;;;;5042210;28;20403;-67
2021/01/25 08:15:20;;;;;;;104.30;31.23;;;-3275.60;97.10;;;;;;5049357;28;20032;-68
2021/01/25 08:17:52;;;;;;;112.28;30.73;;;-3275.60;97.10;;;;;;5049374;28;20021;-68
2021/01/25 08:20:23;;;;;;;96.50;31.42;;;-3275.60;97.10;;;;;;5048648;28;20064;-67
2021/01/25 08:22:56;;;;;;;111.00;30.90;;;-3275.60;97.00;;;;;;5044701;28;20333;-68
2021/01/25 08:25:25;;;;;;;94.85;31.67;;;-3275.60;97.00;;;;;;5035334;28;20025;-68
2021/01/25 08:28:05;;;;;;;102.53;30.42;;;-3275.70;97.10;;;;;;5044119;28;20104;-68
2021/01/25 08:30:39;;;;;;;97.60;28.73;;;-3275.70;97.00;;;;;;5048628;28;20036;-67
2021/01/25 08:33:07;;;;;;;106.60;28.83;;;-3275.70;96.90;;;;;;5045856;28;20275;-68
2021/01/25 08:35:38;;;;;;;128.48;28.88;;;-3275.70;96.90;;;;;;5047965;28;20029;-67
2021/01/25 08:38:09;;;;;;;112.00;30.98;;;-3275.70;96.90;;;;;;5034102;28;20051;-67
2021/01/25 08:40:38;;;;;;;98.00;28.98;;;-3275.70;96.90;;;;;;5048327;28;20029;-67
2021/01/25 08:43:05;;;;;;;73.35;30.00;;;-3275.70;96.90;;;;;;5036021;28;20041;-67
2021/01/25 08:45:32;;;;;;;132.25;31.65;;;-3275.80;96.90;;;;;;5034241;28;20029;-68
2021/01/25 08:48:06;;;;;;;59.50;27.70;;;-3275.80;96.90;;;;;;5030575;28;20436;-67
2021/01/25 08:50:32;;;;;;;63.53;30.27;;;-3275.80;96.90;;;;;;5045603;28;20493;-66
2021/01/25 08:53:10;;;;;;;64.10;30.15;;;-3275.80;96.90;;;;;;5049807;28;20508;-68
2021/01/25 08:55:44;;;;;;;57.42;29.58;;;-3275.80;96.90;;;;;;5046209;28;20017;-68
2021/01/25 08:58:15;;;;;;;79.53;29.63;;;-3275.90;96.90;;;;;;5040017;28;20087;-67
2021/01/25 09:00:42;;;;;;;61.05;29.65;;;-3276.00;96.90;;;;;;5039206;28;20044;-67
2021/01/25 09:03:11;;;;;;;55.72;28.52;;;-3276.10;96.80;;;;;;5050049;28;20039;-67
2021/01/25 09:05:37;;;;;;;53.33;28.10;;;-3276.20;96.70;;;;;;5045479;28;20033;-67
2021/01/25 09:08:04;;;;;;;52.50;27.33;;;-3276.20;96.70;;;;;;5040859;28;20039;-67
2021/01/25 09:10:29;;;;;;;70.47;25.75;;;-3276.10;96.50;;;;;;5044983;28;20024;-68
2021/01/25 09:12:55;;;;;;;56.75;27.88;;;-3276.20;96.50;;;;;;5048419;28;20472;-68
2021/01/25 09:15:22;;;;;;;65.47;26.15;;;-3276.20;96.40;;;;;;5047719;28;20033;-68
2021/01/25 09:17:47;;;;;;;51.38;24.98;;;-3276.30;96.40;;;;;;5031894;28;20555;-67
2021/01/25 09:20:13;;;;;;;57.33;27.13;;;-3276.30;96.40;;;;;;5047371;28;20021;-68
2021/01/25 09:22:40;;;;;;;67.85;26.55;;;-3276.50;96.50;;;;;;5049916;28;20035;-68
2021/01/25 09:25:08;;;;;;;80.35;26.00;;;-3276.50;96.30;;;;;;5042760;28;20757;-68
2021/01/25 09:27:34;;;;;;;72.20;23.42;;;-3276.50;96.30;;;;;;5039226;28;20033;-68
2021/01/25 09:30:00;;;;;;;79.78;24.05;;;-3276.40;96.10;;;;;;5045201;28;20062;-68
2021/01/25 09:32:25;;;;;;;51.88;22.80;;;-3276.40;96.20;;;;;;5049639;28;20389;-67
2021/01/25 09:34:54;;;;;;;56.92;24.40;;;-3276.40;96.30;;;;;;5046552;28;20025;-68
2021/01/25 09:37:20;;;;;;;51.42;23.48;;;-3276.40;96.30;;;;;;5049033;28;20029;-68
2021/01/25 09:39:45;;;;;;;59.72;24.35;;;-3276.30;96.30;;;;;;5046276;28;20059;-67
2021/01/25 09:42:11;;;;;;;77.28;25.65;;;-3276.30;96.30;;;;;;5049235;28;20110;-67
2021/01/25 09:44:37;;;;;;;58.78;25.85;;;-3276.40;96.30;;;;;;5046425;28;20048;-68
2021/01/25 09:47:04;;;;;;;47.72;24.77;;;-3276.50;96.40;;;;;;5037514;28;20113;-68
2021/01/25 09:49:30;;;;;;;51.85;23.65;;;-3276.60;96.20;;;;;;5036648;28;20025;-68
2021/01/25 09:51:56;;;;;;;46.47;23.23;;;-3276.70;96.30;;;;;;5049650;28;20444;-67
2021/01/25 09:54:21;;;;;;;46.55;24.45;;;-3276.70;96.00;;;;;;5039836;28;20092;-68
2021/01/25 09:56:49;;;;;;;49.85;25.52;;;-3276.70;95.80;;;;;;5029323;28;20584;-68
2021/01/25 09:59:15;;;;;;;50.58;25.65;;;-3276.60;95.80;;;;;;5040072;28;20033;-68
2021/01/25 10:01:40;;;;;;;53.72;24.35;;;-3276.60;95.80;;;;;;5039497;28;20096;-67
2021/01/25 10:04:06;;;;;;;42.90;22.38;;;-3276.70;96.00;;;;;;5044158;28;20021;-67
2021/01/25 10:06:32;;;;;;;45.40;24.15;;;-3276.60;95.90;;;;;;5047253;28;20108;-67
2021/01/25 10:08:58;;;;;;;47.65;25.00;;;-3276.70;96.00;;;;;;5041002;28;20307;-67
2021/01/25 10:11:25;;;;;;;54.33;25.58;;;-3276.60;95.90;;;;;;5046199;28;20489;-67
2021/01/25 10:13:51;;;;;;;46.75;23.83;;;-3276.60;96.00;;;;;;5045190;28;20017;-68
2021/01/25 10:16:16;;;;;;;51.05;27.30;;;-3276.60;95.90;;;;;;5039008;28;20071;-68
2021/01/25 10:18:42;;;;;;;56.95;26.48;;;-3276.70;96.00;;;;;;5021301;28;20074;-68
2021/01/25 10:21:08;;;;;;;45.65;26.08;;;-3276.70;95.90;;;;;;5041894;28;20865;-68
2021/01/25 10:23:34;;;;;;;47.53;24.08;;;0.00;95.90;;;;;;5031328;28;20117;-68
2021/01/25 10:25:59;;;;;;;48.13;25.10;;;-3276.60;95.70;;;;;;5033726;28;20033;-68
2021/01/25 10:28:25;;;;;;;50.20;25.20;;;-3276.70;95.80;;;;;;5031575;28;20536;-68
2021/01/25 10:30:51;;;;;;;44.40;26.55;;;0.00;95.90;;;;;;5036287;28;20715;-68
2021/01/25 10:33:16;;;;;;;50.65;24.00;;;0.00;96.00;;;;;;5035292;28;20033;-69
2021/01/25 10:35:42;;;;;;;52.00;24.80;;;0.00;95.70;;;;;;5033104;28;20025;-68
2021/01/25 10:38:09;;;;;;;49.10;25.95;;;0.00;95.60;;;;;;5031072;28;20175;-68
2021/01/25 10:40:34;;;;;;;45.85;24.35;;;0.10;95.80;;;;;;5035676;28;20036;-68
2021/01/25 10:43:00;;;;;;;34.15;22.67;;;0.20;95.80;;;;;;5042447;28;20056;-67
2021/01/25 10:45:26;;;;;;;37.63;20.92;;;0.20;95.20;;;;;;5045414;28;20119;-68
2021/01/25 10:47:51;;;;;;;38.08;22.70;;;0.20;95.10;;;;;;5051737;28;20470;-68
2021/01/25 10:50:17;;;;;;;38.65;22.90;;;0.40;95.10;;;;;;5042079;28;20061;-68
2021/01/25 10:52:44;;;;;;;40.10;24.17;;;0.50;95.10;;;;;;5035042;28;20061;-68
2021/01/25 10:55:11;;;;;;;40.80;22.23;;;0.60;94.90;;;;;;5020672;28;20068;-68
2021/01/25 10:57:37;;;;;;;33.75;21.98;;;0.60;94.70;;;;;;5046688;28;20126;-67
2021/01/25 11:00:12;;;;;;;39.10;23.67;;;0.80;94.70;;;;;;5046871;28;20139;-67
2021/01/25 11:02:38;;;;;;;39.30;24.45;;;0.60;94.20;;;;;;5035457;28;20553;-68
2021/01/25 11:05:07;;;;;;;41.42;24.83;;;0.70;94.50;;;;;;5034459;28;20669;-68
2021/01/25 11:07:33;;;;;;;36.72;23.42;;;0.80;94.30;;;;;;5033809;28;20033;-68
2021/01/25 11:09:59;;;;;;;35.53;22.02;;;1.00;94.10;;;;;;5030125;28;20029;-67
2021/01/25 11:12:25;;;;;;;37.42;21.67;;;1.00;93.90;;;;;;5036544;28;20029;-66
2021/01/25 11:14:50;;;;;;;39.45;21.77;;;1.10;94.00;;;;;;5046812;28;20033;-66
2021/01/25 11:17:16;;;;;;;38.25;23.08;;;1.00;93.90;;;;;;5049102;28;20478;-69
2021/01/25 11:19:42;;;;;;;32.58;20.15;;;1.00;93.80;;;;;;5047240;28;20025;-68
2021/01/25 11:22:07;;;;;;;31.27;21.15;;;1.10;93.70;;;;;;5047114;28;20047;-68
2021/01/25 11:24:33;;;;;;;34.20;20.77;;;1.00;93.90;;;;;;5044780;28;20390;-66
2021/01/25 11:27:02;;;;;;;34.03;21.25;;;0.90;93.90;;;;;;5027547;28;20078;-67
2021/01/25 11:29:30;;;;;;;38.50;21.75;;;0.90;94.10;;;;;;5042965;28;20036;-68
2021/01/25 11:32:03;;;;;;;34.22;21.42;;;1.00;94.20;;;;;;5039467;28;20048;-68
2021/01/25 11:34:29;;;;;;;36.58;21.50;;;1.00;94.20;;;;;;5003914;28;20078;-68
2021/01/25 11:36:58;;;;;;;33.95;21.85;;;1.10;94.30;;;;;;5037710;28;20022;-68
2021/01/25 11:39:28;;;;;;;33.22;21.85;;;1.30;94.20;;;;;;5050615;28;20024;-68
2021/01/25 11:41:53;;;;;;;35.67;21.80;;;1.30;93.40;;;;;;5049885;28;20490;-68
2021/01/25 11:44:20;;;;;;;35.15;20.50;;;1.40;93.20;;;;;;5050988;28;20267;-68
2021/01/25 11:46:46;;;;;;;28.13;18.25;;;2.00;92.80;;;;;;5048278;28;20033;-68
2021/01/25 11:49:12;;;;;;;28.25;18.85;;;2.10;91.70;;;;;;5051084;28;20021;-68
2021/01/25 11:51:37;;;;;;;28.83;18.30;;;2.30;91.50;;;;;;5043113;28;20045;-69
2021/01/25 11:54:03;;;;;;;29.48;18.10;;;2.40;91.20;;;;;;5047002;28;20025;-68
2021/01/25 11:56:29;;;;;;;25.45;16.50;;;2.60;90.80;;;;;;5034760;28;20017;-69
2021/01/25 11:58:54;;;;;;;25.75;15.82;;;2.30;90.70;;;;;;5036913;28;20111;-69
2021/01/25 12:01:20;;;;;;;25.90;16.80;;;2.30;91.10;;;;;;5033021;28;20029;-67
2021/01/25 12:03:45;;;;;;;30.20;16.13;;;2.20;90.90;;;;;;5044083;28;20021;-69
2021/01/25 12:06:12;;;;;;;23.40;15.52;;;2.10;90.60;;;;;;5049044;28;20397;-69
2021/01/25 12:08:37;;;;;;;26.65;16.35;;;2.00;91.00;;;;;;5045319;28;20232;-68